Time;durP1;ratioP1;P1;durP2;ratioP2;P2;SDS_P1;SDS_P2;PMS_P1;PMS_P2;Temp;Humidity;BMP_temperature;BMP_pressure;BME280_temperature;BME280_humidity;BME280_pressure;Samples;Min_cycle;Max_cycle;Signal;HPM_P1;HPM_P2
2022/09/23 00:00:41;;;;;;;5.97;3.53;;;7.80;99.50;;;;;;6226694;23;20100;-82
2022/09/23 00:03:07;;;;;;;7.28;3.65;;;7.70;99.60;;;;;;6226090;23;20001;-83
2022/09/23 00:05:34;;;;;;;3.95;3.33;;;7.70;99.70;;;;;;6225771;23;20052;-83
2022/09/23 00:07:59;;;;;;;3.67;3.03;;;7.70;99.90;;;;;;6226184;23;20047;-82
2022/09/23 00:10:27;;;;;;;3.72;2.80;;;7.70;99.90;;;;;;6199511;23;20000;-83
2022/09/23 00:12:53;;;;;;;4.45;2.78;;;7.60;99.90;;;;;;6225493;23;20064;-84
2022/09/23 00:15:20;;;;;;;4.97;3.25;;;7.60;99.90;;;;;;6226528;23;20003;-83
2022/09/23 00:17:46;;;;;;;3.22;2.67;;;7.60;99.90;;;;;;6225994;23;19996;-82
2022/09/23 00:20:13;;;;;;;3.70;3.33;;;7.50;99.90;;;;;;6226261;23;19997;-83
2022/09/23 00:22:39;;;;;;;3.78;2.70;;;7.50;99.90;;;;;;6226084;23;19997;-82
2022/09/23 00:25:07;;;;;;;4.00;2.92;;;7.50;99.90;;;;;;6227238;23;20016;-82
2022/09/23 00:27:34;;;;;;;3.20;2.63;;;7.50;99.90;;;;;;6229877;23;20005;-82
2022/09/23 00:30:00;;;;;;;4.63;3.25;;;7.40;99.90;;;;;;6206081;23;20000;-82
2022/09/23 00:32:26;;;;;;;3.78;2.97;;;7.40;99.90;;;;;;6217987;22;20021;-76
2022/09/23 00:34:52;;;;;;;3.78;2.60;;;7.40;99.90;;;;;;6191345;23;20005;-78
2022/09/23 00:37:19;;;;;;;3.80;3.03;;;7.40;99.90;;;;;;6189143;23;20039;-79
2022/09/23 00:39:45;;;;;;;2.97;2.67;;;7.40;99.90;;;;;;6212745;23;20443;-79
2022/09/23 00:42:15;;;;;;;2.67;2.47;;;7.40;99.90;;;;;;6190374;23;20005;-80
2022/09/23 00:44:46;;;;;;;3.10;2.80;;;7.30;99.90;;;;;;6185098;23;20047;-78
2022/09/23 00:47:31;;;;;;;4.53;2.77;;;7.30;99.90;;;;;;6185901;23;20265;-78
2022/09/23 00:50:24;;;;;;;3.95;2.60;;;7.30;99.90;;;;;;6208899;23;20005;-78
2022/09/23 00:52:53;;;;;;;4.30;2.53;;;7.30;99.90;;;;;;6188793;23;20585;-78
2022/09/23 00:55:24;;;;;;;2.65;2.42;;;7.20;99.90;;;;;;6192115;23;20016;-78
2022/09/23 00:57:53;;;;;;;2.83;2.33;;;7.20;99.90;;;;;;6191724;23;20008;-77
2022/09/23 01:00:20;;;;;;;3.08;2.75;;;7.10;99.90;;;;;;6195974;23;20060;-77
2022/09/23 01:02:46;;;;;;;3.22;2.40;;;7.10;99.90;;;;;;6219975;23;19989;-78
2022/09/23 01:05:12;;;;;;;2.70;2.50;;;7.10;99.90;;;;;;6190726;23;20004;-78
2022/09/23 01:07:38;;;;;;;2.88;2.47;;;7.00;99.90;;;;;;6187999;23;19997;-77
2022/09/23 01:10:04;;;;;;;2.67;2.47;;;7.00;99.90;;;;;;6191127;23;20009;-77
2022/09/23 01:12:48;;;;;;;4.35;2.72;;;7.00;99.90;;;;;;6189145;23;19997;-77
2022/09/23 01:15:20;;;;;;;3.00;2.58;;;7.10;99.90;;;;;;6185501;23;20001;-78
2022/09/23 01:18:25;;;;;;;3.58;2.83;;;7.00;99.90;;;;;;6188009;23;20024;-78
2022/09/23 01:20:58;;;;;;;6.47;3.13;;;7.00;99.90;;;;;;6127341;23;20002;-78
2022/09/23 01:23:54;;;;;;;3.47;2.85;;;7.00;99.90;;;;;;6129557;23;20006;-78
2022/09/23 01:26:41;;;;;;;3.40;2.72;;;6.90;99.90;;;;;;6162756;23;20063;-78
2022/09/23 01:29:16;;;;;;;2.63;2.28;;;6.90;99.90;;;;;;6188448;23;20004;-78
2022/09/23 01:31:50;;;;;;;2.85;2.58;;;6.90;99.90;;;;;;6212881;23;20084;-78
2022/09/23 01:34:28;;;;;;;2.67;2.38;;;6.90;99.90;;;;;;6189363;23;20012;-78
2022/09/23 01:37:24;;;;;;;2.67;2.40;;;6.80;99.90;;;;;;6189866;23;20005;-78
2022/09/23 01:40:10;;;;;;;3.58;2.80;;;6.80;99.90;;;;;;6148963;23;20012;-78
2022/09/23 01:42:41;;;;;;;5.38;3.40;;;6.80;99.90;;;;;;6189867;23;20055;-79
2022/09/23 01:45:22;;;;;;;4.55;3.50;;;6.80;99.90;;;;;;6192611;23;20463;-79
2022/09/23 01:48:00;;;;;;;6.00;3.60;;;6.70;99.90;;;;;;6189824;23;20066;-78
2022/09/23 01:53:28;;;;;;;4.35;3.45;;;6.60;99.90;;;;;;6190299;23;20040;-78
2022/09/23 01:55:57;;;;;;;4.80;3.55;;;6.40;99.90;;;;;;6190051;23;20136;-78
2022/09/23 01:58:28;;;;;;;5.13;4.10;;;6.40;99.90;;;;;;6190754;23;20009;-78
2022/09/23 02:01:00;;;;;;;6.28;3.85;;;6.40;99.90;;;;;;6189937;23;20027;-78
2022/09/23 02:03:38;;;;;;;;;;;6.30;99.90;;;;;;6188518;23;20080;-78
2022/09/23 02:06:22;;;;;;;4.53;3.30;;;6.30;99.90;;;;;;6188995;23;20369;-78
2022/09/23 02:09:04;;;;;;;5.57;4.10;;;6.30;99.90;;;;;;6190094;23;20012;-79
2022/09/23 02:11:35;;;;;;;4.68;3.75;;;6.30;99.90;;;;;;6190517;23;20409;-79
2022/09/23 02:14:23;;;;;;;5.60;3.53;;;6.30;99.90;;;;;;6192411;23;20009;-78
2022/09/23 02:16:55;;;;;;;5.43;4.40;;;6.30;99.90;;;;;;6192729;23;20024;-79
2022/09/23 02:19:27;;;;;;;5.20;3.60;;;6.30;99.90;;;;;;6193067;23;20001;-79
2022/09/23 02:22:03;;;;;;;4.15;3.65;;;6.30;99.90;;;;;;6193028;23;20439;-79
2022/09/23 02:24:33;;;;;;;4.68;3.85;;;6.20;99.90;;;;;;6197089;23;20535;-78
2022/09/23 02:27:25;;;;;;;5.43;3.30;;;6.20;99.90;;;;;;6191774;23;20009;-79
2022/09/23 02:30:11;;;;;;;3.63;3.05;;;6.30;99.90;;;;;;6164628;23;20024;-79
2022/09/23 02:32:55;;;;;;;4.82;3.20;;;6.30;99.90;;;;;;6206996;23;20014;-78
2022/09/23 02:35:24;;;;;;;5.22;4.00;;;6.30;99.90;;;;;;6195879;23;20032;-79
2022/09/23 02:38:11;;;;;;;4.15;3.75;;;6.30;99.90;;;;;;6197905;22;19993;-79
2022/09/23 02:40:43;;;;;;;6.03;3.75;;;6.30;99.90;;;;;;6196401;23;20005;-79
2022/09/23 02:43:22;;;;;;;6.17;3.73;;;6.30;99.90;;;;;;6225567;23;20011;-79
2022/09/23 02:45:49;;;;;;;5.25;3.72;;;6.20;99.90;;;;;;6198342;23;20236;-79
2022/09/23 02:48:26;;;;;;;4.63;3.58;;;6.20;99.90;;;;;;6198535;23;20059;-79
2022/09/23 02:50:52;;;;;;;4.75;3.28;;;6.20;99.90;;;;;;6223071;23;20143;-78
2022/09/23 02:53:18;;;;;;;5.10;3.95;;;6.10;99.90;;;;;;6222997;23;20004;-79
2022/09/23 02:55:43;;;;;;;6.47;3.63;;;6.10;99.90;;;;;;6223678;23;20012;-79
2022/09/23 02:58:12;;;;;;;5.32;3.30;;;6.10;99.90;;;;;;6221943;23;20004;-79
2022/09/23 03:00:48;;;;;;;4.22;3.22;;;6.10;99.90;;;;;;6223078;23;20001;-79
2022/09/23 03:03:39;;;;;;;4.03;3.40;;;6.10;99.90;;;;;;6227260;23;20347;-78
2022/09/23 03:06:55;;;;;;;3.45;3.15;;;6.00;99.90;;;;;;6226776;23;20001;-78
2022/09/23 03:09:32;;;;;;;4.13;3.05;;;6.10;99.90;;;;;;6173714;23;20015;-78
2022/09/23 03:12:34;;;;;;;4.07;3.03;;;6.00;99.90;;;;;;6243620;23;20040;-79
2022/09/23 03:15:03;;;;;;;3.45;2.90;;;6.10;99.90;;;;;;6225863;23;20009;-79
2022/09/23 03:17:36;;;;;;;4.72;3.33;;;6.00;99.90;;;;;;6197038;23;20016;-79
2022/09/23 03:20:09;;;;;;;4.43;3.58;;;6.10;99.90;;;;;;6196842;23;20011;-79
2022/09/23 03:22:47;;;;;;;3.80;3.40;;;6.00;99.90;;;;;;6223609;23;20104;-78
2022/09/23 03:25:18;;;;;;;4.90;3.40;;;6.00;99.90;;;;;;6196479;23;20005;-78
2022/09/23 03:27:44;;;;;;;5.15;3.50;;;6.00;99.90;;;;;;6244107;22;20072;-78
2022/09/23 03:30:11;;;;;;;3.47;3.17;;;6.00;99.90;;;;;;6222536;23;20001;-78
2022/09/23 03:32:40;;;;;;;4.75;3.00;;;5.90;99.90;;;;;;6192736;23;20039;-77
2022/09/23 03:35:06;;;;;;;4.47;3.50;;;5.90;99.90;;;;;;6192245;23;20104;-78
2022/09/23 03:37:38;;;;;;;2.97;2.40;;;5.80;99.90;;;;;;6220578;23;20028;-78
2022/09/23 03:40:40;;;;;;;3.50;2.50;;;5.80;99.90;;;;;;6218174;23;20000;-78
2022/09/23 03:43:07;;;;;;;3.53;2.47;;;5.80;99.90;;;;;;6192013;23;20004;-78
2022/09/23 03:45:34;;;;;;;4.07;3.00;;;5.90;99.90;;;;;;6193891;23;20428;-78
2022/09/23 03:48:00;;;;;;;2.65;2.10;;;5.80;99.90;;;;;;6219753;23;20011;-78
2022/09/23 03:50:27;;;;;;;2.10;1.90;;;5.80;99.90;;;;;;6219896;23;20001;-78
2022/09/23 03:52:52;;;;;;;3.63;2.47;;;5.80;99.90;;;;;;6220322;23;20043;-78
2022/09/23 03:55:19;;;;;;;2.83;2.03;;;5.70;99.90;;;;;;6216159;23;20308;-77
2022/09/23 03:57:45;;;;;;;2.83;2.40;;;5.70;99.90;;;;;;6215754;23;20014;-77
2022/09/23 04:00:12;;;;;;;3.42;2.50;;;5.70;99.90;;;;;;6189668;23;20009;-78
2022/09/23 04:02:38;;;;;;;2.53;2.08;;;5.60;99.90;;;;;;6194017;23;20064;-78
2022/09/23 04:05:05;;;;;;;2.58;2.20;;;5.60;99.90;;;;;;6220399;23;20443;-78
2022/09/23 04:07:31;;;;;;;2.30;2.10;;;5.50;99.90;;;;;;6220278;23;19996;-78
2022/09/23 04:09:57;;;;;;;2.10;1.90;;;5.50;99.90;;;;;;6220304;23;20001;-78
2022/09/23 04:12:23;;;;;;;2.35;2.08;;;5.50;99.90;;;;;;6224317;23;19997;-78
2022/09/23 04:14:49;;;;;;;2.65;1.80;;;5.50;99.90;;;;;;6201011;23;20013;-78
2022/09/23 04:17:15;;;;;;;3.05;2.25;;;5.50;99.90;;;;;;6226282;23;20009;-78
2022/09/23 04:19:40;;;;;;;2.10;1.90;;;5.40;99.90;;;;;;6223084;23;20000;-78
2022/09/23 04:22:07;;;;;;;3.20;2.03;;;5.40;99.90;;;;;;6223014;23;20383;-78
2022/09/23 04:24:32;;;;;;;3.13;2.47;;;5.40;99.90;;;;;;6219881;23;20074;-78
2022/09/23 04:26:58;;;;;;;2.13;1.98;;;5.40;99.90;;;;;;6193527;23;20008;-78
2022/09/23 04:29:25;;;;;;;3.25;2.55;;;5.40;99.90;;;;;;6220749;23;20027;-78
2022/09/23 04:31:52;;;;;;;2.78;2.35;;;5.40;99.90;;;;;;6220152;23;20000;-78
2022/09/23 04:34:18;;;;;;;2.65;1.95;;;5.40;99.90;;;;;;6220304;23;20005;-78
2022/09/23 04:36:45;;;;;;;2.30;2.03;;;5.50;99.90;;;;;;6193171;23;20027;-78
2022/09/23 04:39:12;;;;;;;2.65;2.03;;;5.50;99.90;;;;;;6194440;23;20012;-79
2022/09/23 04:41:37;;;;;;;3.17;2.55;;;5.60;99.90;;;;;;6224732;23;20007;-77
2022/09/23 04:44:03;;;;;;;3.35;3.05;;;5.60;99.90;;;;;;6228187;22;20408;-78
2022/09/23 04:46:30;;;;;;;3.22;2.65;;;5.50;99.90;;;;;;6220162;23;20000;-79
2022/09/23 04:48:56;;;;;;;2.97;2.20;;;5.50;99.90;;;;;;6218179;23;19996;-78
2022/09/23 04:51:22;;;;;;;2.35;2.15;;;5.50;99.90;;;;;;6217567;23;20046;-78
2022/09/23 04:53:50;;;;;;;3.38;2.83;;;5.40;99.90;;;;;;6220668;23;20017;-77
2022/09/23 04:56:22;;;;;;;3.75;2.70;;;5.40;99.90;;;;;;6219224;23;20446;-79
2022/09/23 04:58:48;;;;;;;3.33;2.63;;;5.40;99.90;;;;;;6195844;23;20036;-79
2022/09/23 05:01:15;;;;;;;3.25;2.92;;;5.40;99.90;;;;;;6200825;23;20172;-78
2022/09/23 05:03:45;;;;;;;4.20;2.85;;;5.40;99.90;;;;;;6227225;23;20602;-78
2022/09/23 05:06:12;;;;;;;3.35;2.47;;;5.50;99.90;;;;;;6197916;23;20032;-78
2022/09/23 05:08:39;;;;;;;2.17;1.98;;;5.50;99.90;;;;;;6199744;23;20001;-78
2022/09/23 05:11:05;;;;;;;2.53;1.80;;;5.60;99.90;;;;;;6226329;23;20415;-78
2022/09/23 05:13:32;;;;;;;2.70;2.25;;;5.60;99.90;;;;;;6227340;23;20005;-78
2022/09/23 05:16:03;;;;;;;2.88;2.00;;;5.70;99.90;;;;;;6221796;23;20044;-79
2022/09/23 05:18:41;;;;;;;3.40;2.40;;;5.70;99.90;;;;;;6219436;23;20039;-78
2022/09/23 05:21:09;;;;;;;4.28;2.20;;;5.70;99.90;;;;;;6219883;23;20001;-79
2022/09/23 05:23:35;;;;;;;2.95;2.50;;;5.70;99.90;;;;;;6218203;23;20004;-79
2022/09/23 05:26:09;;;;;;;4.65;2.83;;;5.70;99.90;;;;;;6191565;23;20004;-79
2022/09/23 05:28:38;;;;;;;2.88;2.15;;;5.70;99.90;;;;;;6220631;23;20080;-78
2022/09/23 05:31:15;;;;;;;2.33;2.10;;;5.80;99.90;;;;;;6191134;23;20011;-78
2022/09/23 05:33:43;;;;;;;2.97;2.30;;;5.80;99.90;;;;;;6191040;23;20038;-78
2022/09/23 05:36:09;;;;;;;3.55;2.38;;;5.90;99.90;;;;;;6192095;23;20432;-78
2022/09/23 05:38:35;;;;;;;5.05;2.53;;;5.90;99.90;;;;;;6229119;23;20011;-78
2022/09/23 05:41:07;;;;;;;2.65;2.35;;;5.90;99.90;;;;;;6230150;23;20001;-77
2022/09/23 05:43:34;;;;;;;2.78;2.03;;;6.00;99.90;;;;;;6203081;23;20031;-77
2022/09/23 05:46:16;;;;;;;3.30;2.50;;;6.00;99.90;;;;;;6229194;23;20001;-77
2022/09/23 05:48:44;;;;;;;;;;;6.10;99.90;;;;;;6200331;23;20005;-78
2022/09/23 05:51:19;;;;;;;3.60;2.55;;;6.10;99.90;;;;;;6227130;23;19958;-77
2022/09/23 05:53:44;;;;;;;7.13;3.42;;;6.20;99.90;;;;;;6221938;23;20079;-79
2022/09/23 05:56:15;;;;;;;4.55;3.03;;;6.20;99.90;;;;;;6219975;23;20003;-79
2022/09/23 05:58:41;;;;;;;3.15;2.85;;;6.20;99.90;;;;;;6219919;23;20003;-77
2022/09/23 06:01:16;;;;;;;2.88;2.22;;;6.30;99.90;;;;;;6221941;23;19997;-77
2022/09/23 06:03:46;;;;;;;2.85;2.42;;;6.40;99.90;;;;;;6189013;23;20013;-77
2022/09/23 06:06:13;;;;;;;3.50;2.55;;;6.40;99.90;;;;;;6215885;23;20027;-79
2022/09/23 06:08:39;;;;;;;3.50;2.75;;;6.40;99.90;;;;;;6218733;23;20522;-78
2022/09/23 06:11:07;;;;;;;2.00;1.80;;;6.50;99.90;;;;;;6218615;23;20011;-79
2022/09/23 06:13:37;;;;;;;4.57;2.53;;;6.60;99.90;;;;;;6192356;23;20004;-78
2022/09/23 06:16:13;;;;;;;2.45;2.10;;;6.60;99.90;;;;;;6190494;23;20332;-78
2022/09/23 06:18:40;;;;;;;2.60;2.20;;;6.70;99.90;;;;;;6219080;23;20001;-78
2022/09/23 06:21:06;;;;;;;2.10;1.83;;;6.80;99.90;;;;;;6224581;23;20024;-78
2022/09/23 06:23:32;;;;;;;1.95;1.73;;;6.80;99.90;;;;;;6220419;23;20515;-79
2022/09/23 06:26:05;;;;;;;2.05;1.77;;;6.90;99.90;;;;;;6219308;23;20004;-78
2022/09/23 06:28:35;;;;;;;2.13;1.92;;;7.00;99.90;;;;;;6219055;23;20005;-78
2022/09/23 06:31:07;;;;;;;3.80;2.20;;;7.10;99.90;;;;;;6193590;23;20001;-80
2022/09/23 06:33:59;;;;;;;4.68;2.30;;;7.10;99.90;;;;;;6211664;22;20009;-89
2022/09/23 06:36:25;;;;;;;2.92;2.20;;;7.10;99.90;;;;;;6199777;22;20013;-88
2022/09/23 06:38:51;;;;;;;3.63;2.53;;;7.20;99.90;;;;;;6236479;22;19997;-87
2022/09/23 06:41:19;;;;;;;3.35;2.17;;;7.20;99.90;;;;;;6236526;22;19997;-83
2022/09/23 06:43:45;;;;;;;3.17;2.40;;;7.30;99.90;;;;;;6209550;22;20016;-84
2022/09/23 06:46:36;;;;;;;2.30;1.85;;;7.40;99.90;;;;;;6235414;22;19993;-84
2022/09/23 06:49:02;;;;;;;3.05;2.30;;;7.50;99.90;;;;;;6210727;22;20005;-82
2022/09/23 06:51:40;;;;;;;3.25;2.00;;;7.60;99.90;;;;;;6211307;22;20020;-83
2022/09/23 06:54:06;;;;;;;2.28;2.05;;;7.60;99.90;;;;;;6211836;22;20017;-84
2022/09/23 06:57:02;;;;;;;6.07;2.55;;;7.70;99.90;;;;;;6211260;22;19999;-84
2022/09/23 06:59:28;;;;;;;3.17;2.20;;;7.80;99.90;;;;;;6213122;22;19990;-86
2022/09/23 07:02:26;;;;;;;3.08;2.33;;;7.90;99.90;;;;;;6236977;22;20335;-82
2022/09/23 07:04:55;;;;;;;2.60;2.00;;;8.00;99.90;;;;;;6214474;22;20004;-85
2022/09/23 07:07:21;;;;;;;3.75;2.10;;;8.20;99.90;;;;;;6238309;22;20020;-82
2022/09/23 07:09:47;;;;;;;3.13;2.05;;;8.30;99.90;;;;;;6214663;22;19989;-81
2022/09/23 07:12:13;;;;;;;2.88;2.38;;;8.40;99.90;;;;;;6214485;22;20008;-82
2022/09/23 07:14:39;;;;;;;2.53;1.88;;;8.60;99.60;;;;;;6238750;22;20387;-84
2022/09/23 07:17:05;;;;;;;3.33;2.10;;;8.80;99.10;;;;;;6214410;22;20104;-82
2022/09/23 07:19:31;;;;;;;1.80;1.70;;;8.90;98.70;;;;;;6215032;22;20064;-84
2022/09/23 07:22:34;;;;;;;1.52;1.42;;;9.10;98.30;;;;;;6238864;22;19993;-83
2022/09/23 07:25:01;;;;;;;2.13;1.75;;;9.30;98.00;;;;;;6212785;23;20020;-84
2022/09/23 07:27:29;;;;;;;3.20;1.83;;;9.50;97.50;;;;;;6212751;22;19993;-84
2022/09/23 07:30:34;;;;;;;3.08;1.60;;;9.70;97.00;;;;;;6212686;22;20024;-83
2022/09/23 07:33:17;;;;;;;1.92;1.73;;;9.90;96.40;;;;;;6230060;22;20027;-84
2022/09/23 07:36:31;;;;;;;4.45;1.65;;;10.10;95.80;;;;;;6244153;22;20008;-83
2022/09/23 07:39:06;;;;;;;2.70;2.00;;;10.30;95.30;;;;;;6226712;22;20005;-83
2022/09/23 07:41:35;;;;;;;3.70;1.90;;;10.50;94.60;;;;;;6243500;22;20069;-84
2022/09/23 07:47:48;;;;;;;3.47;1.70;;;11.00;93.20;;;;;;6154699;23;20091;-85
2022/09/23 07:50:42;;;;;;;2.47;1.70;;;11.30;92.50;;;;;;6217407;22;20099;-82
2022/09/23 07:53:25;;;;;;;2.15;1.33;;;11.50;91.70;;;;;;6216718;22;19993;-81
2022/09/23 07:55:55;;;;;;;2.53;1.70;;;11.70;91.20;;;;;;6215653;22;20000;-82
2022/09/23 07:58:34;;;;;;;2.20;1.88;;;11.80;90.50;;;;;;6216419;23;20012;-79
2022/09/23 08:01:05;;;;;;;2.28;2.08;;;12.00;90.00;;;;;;6216126;22;20004;-81
2022/09/23 08:03:39;;;;;;;2.30;1.60;;;12.20;89.40;;;;;;6242571;22;20035;-81
2022/09/23 08:06:22;;;;;;;3.55;2.20;;;12.40;88.90;;;;;;6216725;22;20003;-81
2022/09/23 08:09:03;;;;;;;2.33;2.10;;;12.70;87.20;;;;;;6237580;22;20001;-80
2022/09/23 08:11:42;;;;;;;1.80;1.58;;;12.90;86.00;;;;;;6216081;22;19993;-81
2022/09/23 08:14:17;;;;;;;3.50;1.55;;;13.10;84.80;;;;;;6242034;22;20000;-82
2022/09/23 08:20:43;;;;;;;1.58;1.48;;;13.40;82.40;;;;;;6182032;23;20009;-83
2022/09/23 08:23:01;;;;;;;2.17;1.48;;;13.70;81.40;;;;;;6197216;23;19989;-82
2022/09/23 08:25:33;;;;;;;1.90;1.65;;;14.00;79.90;;;;;;6243762;22;19997;-83
2022/09/23 08:28:01;;;;;;;2.17;1.58;;;14.20;78.90;;;;;;6243584;22;19989;-85
2022/09/23 08:30:30;;;;;;;1.55;1.45;;;14.40;78.00;;;;;;6243664;22;20074;-80
2022/09/23 08:32:56;;;;;;;1.48;1.23;;;14.70;77.00;;;;;;6243645;22;19996;-84
2022/09/23 08:35:22;;;;;;;1.50;1.35;;;14.90;75.90;;;;;;6244120;22;20027;-84
2022/09/23 08:37:47;;;;;;;2.17;1.45;;;15.00;74.80;;;;;;6243713;22;20031;-82
2022/09/23 08:40:14;;;;;;;3.03;1.45;;;15.10;73.90;;;;;;6244203;22;19996;-84
2022/09/23 08:42:42;;;;;;;1.40;1.30;;;15.20;73.20;;;;;;6243816;22;20008;-79
2022/09/23 08:45:19;;;;;;;2.35;2.15;;;15.30;72.80;;;;;;6217772;22;19992;-83
2022/09/23 08:48:04;;;;;;;2.10;1.60;;;15.50;71.80;;;;;;6240755;23;20023;-86
2022/09/23 08:50:41;;;;;;;4.35;2.20;;;15.50;71.50;;;;;;6242493;22;19989;-85
2022/09/23 08:53:28;;;;;;;3.85;2.20;;;15.60;69.80;;;;;;6243582;22;19988;-85
2022/09/23 08:55:57;;;;;;;2.42;1.63;;;15.60;70.10;;;;;;6244209;22;19992;-81
2022/09/23 08:58:47;;;;;;;2.08;1.52;;;15.80;71.10;;;;;;6217994;22;20008;-80
2022/09/23 09:02:04;;;;;;;1.20;1.10;;;16.00;70.20;;;;;;6244000;22;19993;-81
2022/09/23 09:05:19;;;;;;;2.65;1.30;;;16.40;69.40;;;;;;6181490;23;20008;-86
2022/09/23 09:07:48;;;;;;;2.38;1.60;;;16.60;68.00;;;;;;6176533;22;19988;-86
2022/09/23 09:11:06;;;;;;;1.60;1.50;;;16.80;66.90;;;;;;6217582;22;20019;-85
2022/09/23 09:17:37;;;;;;;7.70;4.60;;;17.10;64.30;;;;;;6181786;23;20033;-86
2022/09/23 09:20:37;;;;;;;4.72;2.95;;;16.90;64.60;;;;;;6157117;23;20050;-84
2022/09/23 09:23:55;;;;;;;1.95;1.48;;;16.80;65.00;;;;;;6191126;23;20031;-82
2022/09/23 09:26:31;;;;;;;2.75;1.65;;;16.70;66.00;;;;;;6181297;23;20061;-88
2022/09/23 09:29:27;;;;;;;2.95;1.85;;;17.00;65.70;;;;;;6205198;22;20000;-84
2022/09/23 09:35:39;;;;;;;40.10;21.05;;;17.80;63.10;;;;;;6243157;22;20051;-84
2022/09/23 09:38:27;;;;;;;15.27;8.95;;;18.00;62.20;;;;;;6216922;22;20051;-84
2022/09/23 09:40:59;;;;;;;3.30;2.70;;;18.10;62.00;;;;;;6216756;22;20004;-86
2022/09/23 09:43:34;;;;;;;6.72;3.03;;;18.00;61.80;;;;;;6216162;23;20047;-84
2022/09/23 09:46:24;;;;;;;3.33;2.33;;;17.90;62.80;;;;;;6216402;22;19993;-83
2022/09/23 09:49:31;;;;;;;2.22;1.80;;;17.80;62.50;;;;;;6190953;22;20043;-84
2022/09/23 09:52:30;;;;;;;1.85;1.50;;;17.80;62.90;;;;;;6126023;23;20022;-83
2022/09/23 09:55:33;;;;;;;4.40;2.58;;;18.10;63.20;;;;;;6127670;23;20013;-85
2022/09/23 09:59:05;;;;;;;4.53;3.40;;;18.30;62.90;;;;;;6150490;23;20010;-83
2022/09/23 10:02:10;;;;;;;2.55;2.08;;;18.50;62.40;;;;;;6168333;23;20052;-84
2022/09/23 10:08:33;;;;;;;3.42;2.00;;;18.80;62.00;;;;;;6120962;23;20317;-82
2022/09/23 10:15:25;;;;;;;2.50;2.00;;;21.20;56.20;;;;;;6042575;23;20010;-82
2022/09/23 10:18:55;;;;;;;2.00;1.67;;;20.80;56.40;;;;;;6109549;23;19995;-83
2022/09/23 10:22:33;;;;;;;5.95;2.13;;;20.80;56.20;;;;;;6034650;23;20099;-84
2022/09/23 10:25:06;;;;;;;2.10;1.90;;;21.50;54.30;;;;;;5958019;23;20012;-80
2022/09/23 10:27:34;;;;;;;4.15;2.33;;;21.70;53.40;;;;;;6094282;23;19991;-82
2022/09/23 10:30:20;;;;;;;4.25;2.05;;;21.50;52.70;;;;;;6121815;23;19999;-82
2022/09/23 10:32:46;;;;;;;6.53;2.63;;;20.90;53.80;;;;;;6118620;23;19994;-83
2022/09/23 10:35:15;;;;;;;2.95;1.80;;;20.50;54.60;;;;;;6129089;23;20013;-83
2022/09/23 10:37:45;;;;;;;4.68;2.78;;;20.00;55.90;;;;;;6244846;22;20016;-83
2022/09/23 10:46:40;;;;;;;5.20;2.20;;;19.40;57.10;;;;;;6244536;22;20019;-86
2022/09/23 10:49:16;;;;;;;1.90;1.48;;;19.30;56.90;;;;;;6244331;22;19999;-81
2022/09/23 10:52:00;;;;;;;3.17;2.03;;;19.40;57.50;;;;;;6243728;22;20023;-84
2022/09/23 10:54:59;;;;;;;2.17;1.88;;;19.50;55.60;;;;;;6243735;22;19996;-83
2022/09/23 10:57:46;;;;;;;2.20;1.75;;;19.50;56.00;;;;;;6243783;22;20036;-83
2022/09/23 11:00:51;;;;;;;3.30;1.90;;;19.50;55.70;;;;;;6243352;22;19989;-83
2022/09/23 11:03:32;;;;;;;5.32;1.90;;;19.20;55.60;;;;;;6205188;23;19993;-84
2022/09/23 11:06:31;;;;;;;2.03;1.60;;;19.20;56.30;;;;;;6217655;22;20072;-82
2022/09/23 11:09:15;;;;;;;1.70;1.10;;;19.30;56.10;;;;;;6243734;22;19985;-83
2022/09/23 11:11:53;;;;;;;3.28;1.80;;;19.40;55.90;;;;;;6243595;22;19985;-84
2022/09/23 11:14:39;;;;;;;2.40;1.48;;;19.60;54.60;;;;;;6241709;22;20067;-83
2022/09/23 11:17:13;;;;;;;4.03;2.00;;;19.80;54.80;;;;;;6207260;23;20450;-86
2022/09/23 11:19:59;;;;;;;1.83;1.52;;;19.90;54.30;;;;;;6239238;22;19988;-84
2022/09/23 11:22:44;;;;;;;1.30;1.20;;;20.10;54.40;;;;;;6243016;22;20375;-83
2022/09/23 11:25:30;;;;;;;2.28;1.35;;;20.30;54.30;;;;;;6217600;22;20007;-83
2022/09/23 11:28:11;;;;;;;1.70;1.30;;;20.80;53.50;;;;;;6243317;22;20057;-84
2022/09/23 11:31:19;;;;;;;1.70;1.30;;;21.20;52.30;;;;;;6243291;22;19993;-82
2022/09/23 11:34:00;;;;;;;4.90;1.90;;;21.50;51.10;;;;;;6137872;23;20045;-85
2022/09/23 11:36:34;;;;;;;2.78;1.77;;;21.50;51.10;;;;;;6113564;23;20022;-86
2022/09/23 11:39:16;;;;;;;2.35;1.75;;;21.30;51.60;;;;;;6205063;22;20001;-83
2022/09/23 11:41:44;;;;;;;1.38;1.25;;;21.20;52.00;;;;;;6217446;22;20004;-82
2022/09/23 11:44:14;;;;;;;2.40;1.20;;;20.90;53.10;;;;;;6243262;22;20323;-83
2022/09/23 11:47:03;;;;;;;1.58;1.23;;;20.90;53.30;;;;;;6217481;22;19992;-86
2022/09/23 11:49:39;;;;;;;2.58;1.58;;;21.00;53.50;;;;;;6243144;22;20000;-82
2022/09/23 11:52:18;;;;;;;3.13;2.00;;;21.20;52.30;;;;;;6242418;22;20028;-83
2022/09/23 11:55:15;;;;;;;3.53;1.55;;;21.10;52.80;;;;;;6217273;22;19995;-84
2022/09/23 11:57:47;;;;;;;2.45;1.80;;;20.90;53.10;;;;;;6215967;22;20016;-84
2022/09/23 12:00:26;;;;;;;2.40;1.95;;;20.70;53.90;;;;;;6217165;23;19992;-83
2022/09/23 12:03:04;;;;;;;1.80;1.55;;;20.50;54.40;;;;;;6243637;22;19992;-84
2022/09/23 12:05:57;;;;;;;4.40;1.90;;;20.40;54.60;;;;;;6217529;22;20027;-84
2022/09/23 12:08:33;;;;;;;4.05;1.98;;;20.40;54.40;;;;;;6243625;22;20052;-83
2022/09/23 12:10:59;;;;;;;4.32;2.50;;;20.20;54.60;;;;;;6241523;22;20003;-85
2022/09/23 12:13:47;;;;;;;4.40;2.40;;;20.20;55.00;;;;;;6207959;23;20001;-84
2022/09/23 12:16:49;;;;;;;5.25;2.03;;;20.10;55.10;;;;;;6242363;22;19993;-84
2022/09/23 12:19:36;;;;;;;2.65;1.80;;;20.00;56.00;;;;;;6216924;22;20001;-84
2022/09/23 12:22:22;;;;;;;2.08;1.95;;;20.00;56.60;;;;;;6216484;22;20004;-84
2022/09/23 12:25:09;;;;;;;4.75;2.00;;;20.20;56.40;;;;;;6242717;22;20013;-84
2022/09/23 12:27:37;;;;;;;5.20;2.08;;;20.20;56.20;;;;;;6242294;22;20005;-85
2022/09/23 12:30:19;;;;;;;5.88;2.40;;;20.50;55.70;;;;;;6242601;22;20005;-83
2022/09/23 12:32:45;;;;;;;5.13;2.25;;;20.70;54.90;;;;;;6240200;22;20068;-85
2022/09/23 12:35:34;;;;;;;2.65;1.70;;;20.80;55.00;;;;;;6212990;23;20023;-86
2022/09/23 12:38:01;;;;;;;3.38;2.30;;;20.70;54.90;;;;;;6237178;22;19988;-86
2022/09/23 12:40:42;;;;;;;17.02;8.57;;;20.80;55.10;;;;;;6209838;23;20008;-87
2022/09/23 12:43:30;;;;;;;21.00;10.02;;;20.90;55.00;;;;;;6238442;23;20004;-86
2022/09/23 12:46:16;;;;;;;16.15;8.93;;;20.80;54.70;;;;;;6234624;23;20008;-86
2022/09/23 12:48:57;;;;;;;9.43;5.25;;;20.80;54.80;;;;;;6233750;23;20009;-86
2022/09/23 12:51:34;;;;;;;5.80;4.05;;;20.90;54.60;;;;;;6230878;22;20015;-85
2022/09/23 12:54:02;;;;;;;3.97;2.63;;;20.80;55.30;;;;;;6233445;23;20056;-85
2022/09/23 12:56:48;;;;;;;3.42;2.13;;;20.90;54.80;;;;;;6231553;23;19996;-83
2022/09/23 12:59:28;;;;;;;3.80;2.45;;;20.90;54.90;;;;;;6205688;23;20001;-84
2022/09/23 13:01:54;;;;;;;4.47;2.15;;;21.00;53.50;;;;;;6237035;22;20005;-85
2022/09/23 13:07:26;;;;;;;5.18;2.70;;;21.20;54.00;;;;;;6236635;23;20078;-84
2022/09/23 13:10:04;;;;;;;4.20;2.50;;;21.30;53.40;;;;;;6212723;22;20339;-85
2022/09/23 13:12:34;;;;;;;2.95;2.03;;;21.30;53.30;;;;;;6237263;23;19996;-83
2022/09/23 13:15:09;;;;;;;7.25;2.40;;;21.20;53.80;;;;;;6234882;23;20000;-85
2022/09/23 13:17:38;;;;;;;1.60;1.50;;;21.30;53.40;;;;;;6233607;23;20027;-86
2022/09/23 13:20:18;;;;;;;1.73;1.63;;;21.40;53.70;;;;;;6212964;23;20004;-85
2022/09/23 13:22:53;;;;;;;3.75;2.15;;;21.40;53.30;;;;;;6210064;23;20008;-86
2022/09/23 13:25:33;;;;;;;3.53;1.45;;;21.30;53.30;;;;;;6235614;23;20059;-83
2022/09/23 13:28:01;;;;;;;4.13;2.95;;;21.30;54.00;;;;;;6235793;22;20005;-85
2022/09/23 13:30:27;;;;;;;8.05;2.22;;;21.40;53.40;;;;;;6235091;23;20000;-83
2022/09/23 13:33:08;;;;;;;4.40;2.20;;;21.40;53.90;;;;;;6234355;22;20001;-85
2022/09/23 13:35:49;;;;;;;3.70;2.70;;;21.60;53.30;;;;;;6206120;23;20032;-84
2022/09/23 13:38:24;;;;;;;3.45;2.13;;;21.70;53.00;;;;;;6229335;23;20012;-84
2022/09/23 13:41:15;;;;;;;2.65;2.10;;;21.50;53.60;;;;;;6231739;23;20000;-86
2022/09/23 13:43:58;;;;;;;2.22;2.03;;;21.20;54.20;;;;;;6233916;22;20039;-85
2022/09/23 13:46:32;;;;;;;4.45;2.33;;;21.20;54.80;;;;;;6232620;23;20019;-82
2022/09/23 13:48:57;;;;;;;4.40;2.85;;;21.30;54.50;;;;;;6204780;23;20016;-85
2022/09/23 13:51:33;;;;;;;3.63;1.90;;;21.10;54.30;;;;;;6202537;23;20072;-84
2022/09/23 13:54:01;;;;;;;7.15;3.70;;;21.00;55.20;;;;;;6215767;22;20017;-79
2022/09/23 13:56:29;;;;;;;3.58;2.35;;;21.10;55.00;;;;;;6193220;23;20120;-81
2022/09/23 13:59:31;;;;;;;2.85;2.20;;;21.20;55.30;;;;;;6231038;23;20009;-82
2022/09/23 14:02:11;;;;;;;;;;;21.40;54.60;;;;;;6208625;23;20001;-80
2022/09/23 14:04:37;;;;;;;2.55;2.15;;;21.40;54.00;;;;;;6200740;23;19920;-81
2022/09/23 14:07:11;;;;;;;1.73;1.63;;;21.40;53.90;;;;;;6201611;23;20016;-84
2022/09/23 14:09:43;;;;;;;6.43;1.40;;;21.30;54.30;;;;;;6186558;23;20096;-81
2022/09/23 14:12:11;;;;;;;5.60;3.83;;;21.30;54.70;;;;;;6187972;23;20239;-81
2022/09/23 14:14:39;;;;;;;21.13;11.45;;;21.40;54.10;;;;;;6190842;23;20084;-82